sensor_id;sensor_type;location;lat;lon;timestamp;pressure;altitude;pressure_sealevel;temperature;humidity
40730;BME280;26418;50.070;8.436;2022-11-20T00:01:59;99593.69;;;2.11;87.28
40730;BME280;26418;50.070;8.436;2022-11-20T00:04:24;99528.22;;;1.71;87.09
40730;BME280;26418;50.070;8.436;2022-11-20T00:06:50;99540.84;;;1.81;87.18
40730;BME280;26418;50.070;8.436;2022-11-20T00:09:15;99578.72;;;2.10;87.27
40730;BME280;26418;50.070;8.436;2022-11-20T00:11:40;99556.53;;;2.04;86.58
40730;BME280;26418;50.070;8.436;2022-11-20T00:14:06;99567.56;;;2.13;85.84
40730;BME280;26418;50.070;8.436;2022-11-20T00:16:32;99601.09;;;2.36;85.69
40730;BME280;26418;50.070;8.436;2022-11-20T00:18:57;99595.47;;;2.33;85.89
40730;BME280;26418;50.070;8.436;2022-11-20T00:21:25;99571.78;;;2.09;86.20
40730;BME280;26418;50.070;8.436;2022-11-20T00:23:51;99583.19;;;2.04;86.54
40730;BME280;26418;50.070;8.436;2022-11-20T00:26:19;99533.09;;;1.79;86.72
40730;BME280;26418;50.070;8.436;2022-11-20T00:28:59;99576.72;;;1.95;86.19
40730;BME280;26418;50.070;8.436;2022-11-20T00:31:25;99580.88;;;1.86;86.82
40730;BME280;26418;50.070;8.436;2022-11-20T00:33:51;99580.88;;;1.86;87.89
40730;BME280;26418;50.070;8.436;2022-11-20T00:36:18;99597.44;;;1.88;88.13
40730;BME280;26418;50.070;8.436;2022-11-20T00:38:45;99532.66;;;1.38;88.47
40730;BME280;26418;50.070;8.436;2022-11-20T00:41:14;99606.44;;;1.82;89.01
40730;BME280;26418;50.070;8.436;2022-11-20T00:43:40;99607.78;;;1.84;89.71
40730;BME280;26418;50.070;8.436;2022-11-20T00:46:17;99548.25;;;1.51;89.59
40730;BME280;26418;50.070;8.436;2022-11-20T00:48:44;99592.94;;;1.66;89.96
40730;BME280;26418;50.070;8.436;2022-11-20T00:51:12;99551.66;;;1.47;90.89
40730;BME280;26418;50.070;8.436;2022-11-20T00:53:38;99551.72;;;1.52;91.08
40730;BME280;26418;50.070;8.436;2022-11-20T00:56:09;99563.44;;;1.51;91.43
40730;BME280;26418;50.070;8.436;2022-11-20T00:58:35;99588.91;;;1.64;91.50
40730;BME280;26418;50.070;8.436;2022-11-20T01:01:04;99568.97;;;1.44;92.21
40730;BME280;26418;50.070;8.436;2022-11-20T01:03:34;99563.94;;;1.48;92.29
40730;BME280;26418;50.070;8.436;2022-11-20T01:06:04;99582.72;;;1.58;92.77
40730;BME280;26418;50.070;8.436;2022-11-20T01:08:31;99573.97;;;1.40;92.84
40730;BME280;26418;50.070;8.436;2022-11-20T01:11:05;99578.38;;;1.52;93.58
40730;BME280;26418;50.070;8.436;2022-11-20T01:13:31;99587.22;;;1.57;93.88
40730;BME280;26418;50.070;8.436;2022-11-20T01:16:15;99556.38;;;1.39;94.09
40730;BME280;26418;50.070;8.436;2022-11-20T01:18:45;99559.84;;;1.40;93.95
40730;BME280;26418;50.070;8.436;2022-11-20T01:21:13;99583.47;;;1.53;94.10
40730;BME280;26418;50.070;8.436;2022-11-20T01:23:41;99592.38;;;1.64;94.31
40730;BME280;26418;50.070;8.436;2022-11-20T01:26:09;99600.63;;;1.63;94.62
40730;BME280;26418;50.070;8.436;2022-11-20T01:28:35;99586.22;;;1.64;94.93
40730;BME280;26418;50.070;8.436;2022-11-20T01:31:02;99576.66;;;1.63;94.95
40730;BME280;26418;50.070;8.436;2022-11-20T01:33:36;99575.19;;;1.77;94.66
40730;BME280;26418;50.070;8.436;2022-11-20T01:36:05;99574.94;;;1.79;94.67
40730;BME280;26418;50.070;8.436;2022-11-20T01:38:31;99562.34;;;1.74;94.49
40730;BME280;26418;50.070;8.436;2022-11-20T01:40:56;99578.72;;;1.83;94.30
40730;BME280;26418;50.070;8.436;2022-11-20T01:43:22;99590.75;;;1.85;94.54
40730;BME280;26418;50.070;8.436;2022-11-20T01:46:01;99589.13;;;1.84;95.21
40730;BME280;26418;50.070;8.436;2022-11-20T01:48:32;99585.59;;;1.79;95.30
40730;BME280;26418;50.070;8.436;2022-11-20T01:50:59;99554.88;;;1.71;95.65
40730;BME280;26418;50.070;8.436;2022-11-20T01:53:29;99580.38;;;1.89;95.83
40730;BME280;26418;50.070;8.436;2022-11-20T01:58:32;99582.44;;;1.82;95.51
40730;BME280;26418;50.070;8.436;2022-11-20T02:00:59;99577.13;;;1.82;95.68
40730;BME280;26418;50.070;8.436;2022-11-20T02:03:25;99573.63;;;1.81;95.88
40730;BME280;26418;50.070;8.436;2022-11-20T02:05:57;99578.47;;;1.84;96.03
40730;BME280;26418;50.070;8.436;2022-11-20T02:08:24;99577.91;;;1.82;95.82
40730;BME280;26418;50.070;8.436;2022-11-20T02:10:50;99573.59;;;1.76;95.51
40730;BME280;26418;50.070;8.436;2022-11-20T02:13:15;99569.56;;;1.73;95.72
40730;BME280;26418;50.070;8.436;2022-11-20T02:18:46;99566.94;;;1.79;96.56
40730;BME280;26418;50.070;8.436;2022-11-20T02:21:35;99553.03;;;1.77;96.69
40730;BME280;26418;50.070;8.436;2022-11-20T02:26:40;99550.50;;;1.87;97.34
40730;BME280;26418;50.070;8.436;2022-11-20T02:29:06;99550.09;;;2.00;97.20
40730;BME280;26418;50.070;8.436;2022-11-20T02:31:40;99547.28;;;2.12;95.51
40730;BME280;26418;50.070;8.436;2022-11-20T02:34:06;99549.34;;;2.05;94.84
40730;BME280;26418;50.070;8.436;2022-11-20T02:36:33;99551.47;;;2.03;94.92
40730;BME280;26418;50.070;8.436;2022-11-20T02:39:00;99549.81;;;1.97;94.68
40730;BME280;26418;50.070;8.436;2022-11-20T02:41:35;99559.34;;;1.93;95.13
40730;BME280;26418;50.070;8.436;2022-11-20T02:44:02;99555.06;;;1.92;95.20
40730;BME280;26418;50.070;8.436;2022-11-20T02:46:27;99556.94;;;1.91;95.41
40730;BME280;26418;50.070;8.436;2022-11-20T02:48:53;99558.56;;;1.92;95.75
40730;BME280;26418;50.070;8.436;2022-11-20T02:51:21;99551.31;;;1.87;95.16
40730;BME280;26418;50.070;8.436;2022-11-20T02:53:47;99542.75;;;1.85;95.32
40730;BME280;26418;50.070;8.436;2022-11-20T02:56:12;99545.91;;;1.82;95.29
40730;BME280;26418;50.070;8.436;2022-11-20T02:58:38;99540.53;;;1.77;95.18
40730;BME280;26418;50.070;8.436;2022-11-20T03:01:03;99541.03;;;1.74;95.83
40730;BME280;26418;50.070;8.436;2022-11-20T03:03:29;99546.34;;;1.74;95.83
40730;BME280;26418;50.070;8.436;2022-11-20T03:05:54;99554.34;;;1.74;96.33
40730;BME280;26418;50.070;8.436;2022-11-20T03:08:20;99558.16;;;1.78;97.01
40730;BME280;26418;50.070;8.436;2022-11-20T03:10:45;99567.00;;;1.84;97.18
40730;BME280;26418;50.070;8.436;2022-11-20T03:13:10;99568.66;;;1.90;97.08
40730;BME280;26418;50.070;8.436;2022-11-20T03:15:36;99556.38;;;1.89;97.06
40730;BME280;26418;50.070;8.436;2022-11-20T03:18:02;99541.69;;;1.86;96.95
40730;BME280;26418;50.070;8.436;2022-11-20T03:20:28;99556.97;;;1.96;96.86
40730;BME280;26418;50.070;8.436;2022-11-20T03:22:54;99561.00;;;1.99;97.08
40730;BME280;26418;50.070;8.436;2022-11-20T03:25:20;99555.19;;;2.02;96.95
40730;BME280;26418;50.070;8.436;2022-11-20T03:27:46;99553.84;;;2.04;97.01
40730;BME280;26418;50.070;8.436;2022-11-20T03:30:12;99545.59;;;2.06;96.79
40730;BME280;26418;50.070;8.436;2022-11-20T03:32:37;99545.84;;;2.04;96.56
40730;BME280;26418;50.070;8.436;2022-11-20T03:35:03;99551.38;;;1.98;96.45
40730;BME280;26418;50.070;8.436;2022-11-20T03:37:28;99551.38;;;1.98;96.49
40730;BME280;26418;50.070;8.436;2022-11-20T03:39:54;99544.22;;;1.98;96.64
40730;BME280;26418;50.070;8.436;2022-11-20T03:42:19;99540.72;;;1.98;96.80
40730;BME280;26418;50.070;8.436;2022-11-20T03:45:04;99533.53;;;1.98;96.92
40730;BME280;26418;50.070;8.436;2022-11-20T03:47:29;99530.88;;;1.98;96.75
40730;BME280;26418;50.070;8.436;2022-11-20T03:49:55;99532.69;;;1.93;96.17
40730;BME280;26418;50.070;8.436;2022-11-20T03:52:20;99551.31;;;1.87;95.90
40730;BME280;26418;50.070;8.436;2022-11-20T03:54:45;99557.41;;;1.83;95.79
40730;BME280;26418;50.070;8.436;2022-11-20T03:57:11;99544.28;;;1.81;96.34
40730;BME280;26418;50.070;8.436;2022-11-20T03:59:36;99542.94;;;1.79;96.89
40730;BME280;26418;50.070;8.436;2022-11-20T04:02:02;99546.47;;;1.84;97.16
40730;BME280;26418;50.070;8.436;2022-11-20T04:04:27;99536.41;;;1.92;97.13
40730;BME280;26418;50.070;8.436;2022-11-20T04:06:52;99529.53;;;1.96;96.69
40730;BME280;26418;50.070;8.436;2022-11-20T04:09:18;99532.19;;;1.96;96.58
40730;BME280;26418;50.070;8.436;2022-11-20T04:11:43;99526.56;;;1.92;96.24
40730;BME280;26418;50.070;8.436;2022-11-20T04:14:14;99526.25;;;1.88;96.22
40730;BME280;26418;50.070;8.436;2022-11-20T04:16:40;99525.44;;;1.88;96.47
40730;BME280;26418;50.070;8.436;2022-11-20T04:19:08;99525.19;;;1.89;97.05
40730;BME280;26418;50.070;8.436;2022-11-20T04:21:35;99509.47;;;1.93;96.88
40730;BME280;26418;50.070;8.436;2022-11-20T04:24:01;99508.66;;;1.87;96.52
40730;BME280;26418;50.070;8.436;2022-11-20T04:26:28;99513.69;;;1.84;96.04
40730;BME280;26418;50.070;8.436;2022-11-20T04:28:53;99517.63;;;1.81;96.34
40730;BME280;26418;50.070;8.436;2022-11-20T04:31:21;99512.59;;;1.85;96.95
40730;BME280;26418;50.070;8.436;2022-11-20T04:33:48;99505.91;;;1.82;96.94
40730;BME280;26418;50.070;8.436;2022-11-20T04:36:15;99519.00;;;1.84;96.87
40730;BME280;26418;50.070;8.436;2022-11-20T04:38:42;99525.13;;;1.84;97.14
40730;BME280;26418;50.070;8.436;2022-11-20T04:41:12;99518.50;;;1.87;97.44
40730;BME280;26418;50.070;8.436;2022-11-20T04:43:39;99519.53;;;1.86;97.19
40730;BME280;26418;50.070;8.436;2022-11-20T04:46:04;99524.34;;;1.84;97.17
40730;BME280;26418;50.070;8.436;2022-11-20T04:48:30;99537.69;;;1.84;97.47
40730;BME280;26418;50.070;8.436;2022-11-20T04:50:56;99529.41;;;1.85;97.78
40730;BME280;26418;50.070;8.436;2022-11-20T04:53:22;99521.72;;;1.89;97.83
40730;BME280;26418;50.070;8.436;2022-11-20T04:55:48;99528.41;;;1.92;97.74
40730;BME280;26418;50.070;8.436;2022-11-20T04:58:14;99529.53;;;1.96;97.75
40730;BME280;26418;50.070;8.436;2022-11-20T05:00:39;99527.09;;;1.94;97.41
40730;BME280;26418;50.070;8.436;2022-11-20T05:03:05;99531.88;;;1.92;97.27
40730;BME280;26418;50.070;8.436;2022-11-20T05:05:31;99526.28;;;1.94;97.45
40730;BME280;26418;50.070;8.436;2022-11-20T05:07:59;99515.63;;;1.94;97.51
40730;BME280;26418;50.070;8.436;2022-11-20T05:10:26;99505.22;;;1.92;97.49
40730;BME280;26418;50.070;8.436;2022-11-20T05:12:51;99519.94;;;2.00;97.16
40730;BME280;26418;50.070;8.436;2022-11-20T05:15:17;99515.44;;;2.00;97.24
40730;BME280;26418;50.070;8.436;2022-11-20T05:17:52;99504.75;;;2.00;97.15
40730;BME280;26418;50.070;8.436;2022-11-20T05:20:18;99502.13;;;2.06;97.10
40730;BME280;26418;50.070;8.436;2022-11-20T05:22:44;99495.72;;;2.07;96.78
40730;BME280;26418;50.070;8.436;2022-11-20T05:25:10;99494.91;;;2.06;96.05
40730;BME280;26418;50.070;8.436;2022-11-20T05:27:36;99502.88;;;2.01;95.85
40730;BME280;26418;50.070;8.436;2022-11-20T05:30:03;99514.06;;;1.98;95.76
40730;BME280;26418;50.070;8.436;2022-11-20T05:32:28;99508.19;;;1.96;96.43
40730;BME280;26418;50.070;8.436;2022-11-20T05:34:53;99512.19;;;1.98;96.85
40730;BME280;26418;50.070;8.436;2022-11-20T05:37:19;99509.28;;;2.00;96.70
40730;BME280;26418;50.070;8.436;2022-11-20T05:39:44;99511.94;;;2.00;96.81
40730;BME280;26418;50.070;8.436;2022-11-20T05:42:10;99517.56;;;2.03;96.80
40730;BME280;26418;50.070;8.436;2022-11-20T05:44:54;99510.38;;;2.04;97.09
40730;BME280;26418;50.070;8.436;2022-11-20T05:47:19;99509.34;;;2.05;96.78
40730;BME280;26418;50.070;8.436;2022-11-20T05:49:44;99504.78;;;2.06;96.64
40730;BME280;26418;50.070;8.436;2022-11-20T05:52:10;99500.78;;;2.03;96.39
40730;BME280;26418;50.070;8.436;2022-11-20T05:54:35;99498.09;;;2.03;96.65
40730;BME280;26418;50.070;8.436;2022-11-20T05:57:01;99497.06;;;2.04;96.82
40730;BME280;26418;50.070;8.436;2022-11-20T05:59:26;99500.25;;;2.06;96.70
40730;BME280;26418;50.070;8.436;2022-11-20T06:01:51;99505.09;;;2.09;96.78
40730;BME280;26418;50.070;8.436;2022-11-20T06:04:17;99514.69;;;2.10;96.72
40730;BME280;26418;50.070;8.436;2022-11-20T06:06:42;99506.22;;;2.13;96.27
40730;BME280;26418;50.070;8.436;2022-11-20T06:09:07;99507.78;;;2.14;96.10
40730;BME280;26418;50.070;8.436;2022-11-20T06:11:33;99500.03;;;2.13;95.81
40730;BME280;26418;50.070;8.436;2022-11-20T06:13:58;99497.09;;;2.09;95.80
40730;BME280;26418;50.070;8.436;2022-11-20T06:16:25;99496.59;;;2.12;96.70
40730;BME280;26418;50.070;8.436;2022-11-20T06:18:50;99500.16;;;2.28;98.69
40730;BME280;26418;50.070;8.436;2022-11-20T06:21:20;99498.69;;;2.43;100.00
40730;BME280;26418;50.070;8.436;2022-11-20T06:23:47;99504.41;;;2.62;100.00
40730;BME280;26418;50.070;8.436;2022-11-20T06:26:15;99512.53;;;2.82;100.00
40730;BME280;26418;50.070;8.436;2022-11-20T06:28:41;99501.41;;;3.01;100.00
40730;BME280;26418;50.070;8.436;2022-11-20T06:31:09;99502.50;;;3.05;100.00
40730;BME280;26418;50.070;8.436;2022-11-20T06:33:35;99492.59;;;3.01;100.00
40730;BME280;26418;50.070;8.436;2022-11-20T06:36:01;99482.97;;;2.99;100.00
40730;BME280;26418;50.070;8.436;2022-11-20T06:38:27;99490.16;;;2.99;100.00
40730;BME280;26418;50.070;8.436;2022-11-20T06:40:54;99484.53;;;2.95;100.00
40730;BME280;26418;50.070;8.436;2022-11-20T06:43:20;99476.50;;;2.85;100.00
40730;BME280;26418;50.070;8.436;2022-11-20T06:45:46;99462.09;;;2.91;100.00
40730;BME280;26418;50.070;8.436;2022-11-20T06:48:13;99488.66;;;3.24;100.00
40730;BME280;26418;50.070;8.436;2022-11-20T06:50:39;99493.28;;;3.44;100.00
40730;BME280;26418;50.070;8.436;2022-11-20T06:53:04;99480.19;;;3.48;100.00
40730;BME280;26418;50.070;8.436;2022-11-20T06:55:30;99482.09;;;3.57;100.00
40730;BME280;26418;50.070;8.436;2022-11-20T06:57:56;99466.84;;;3.53;100.00
40730;BME280;26418;50.070;8.436;2022-11-20T07:00:21;99494.97;;;3.76;100.00
40730;BME280;26418;50.070;8.436;2022-11-20T07:02:47;99478.09;;;3.65;100.00
40730;BME280;26418;50.070;8.436;2022-11-20T07:05:12;99485.81;;;3.61;100.00
40730;BME280;26418;50.070;8.436;2022-11-20T07:07:37;99483.94;;;3.57;100.00
40730;BME280;26418;50.070;8.436;2022-11-20T07:10:03;99527.56;;;3.78;100.00
40730;BME280;26418;50.070;8.436;2022-11-20T07:12:29;99511.78;;;3.76;100.00
40730;BME280;26418;50.070;8.436;2022-11-20T07:14:54;99497.34;;;3.67;100.00
40730;BME280;26418;50.070;8.436;2022-11-20T07:17:20;99504.03;;;3.75;100.00
40730;BME280;26418;50.070;8.436;2022-11-20T07:19:45;99518.50;;;3.84;100.00
40730;BME280;26418;50.070;8.436;2022-11-20T07:22:10;99512.31;;;3.68;100.00
40730;BME280;26418;50.070;8.436;2022-11-20T07:24:36;99502.09;;;3.50;100.00
40730;BME280;26418;50.070;8.436;2022-11-20T07:27:01;99510.63;;;3.41;100.00
40730;BME280;26418;50.070;8.436;2022-11-20T07:29:26;99516.19;;;3.24;100.00
40730;BME280;26418;50.070;8.436;2022-11-20T07:31:52;99506.00;;;3.16;100.00
40730;BME280;26418;50.070;8.436;2022-11-20T07:34:17;99512.41;;;3.10;100.00
40730;BME280;26418;50.070;8.436;2022-11-20T07:36:42;99499.00;;;2.99;100.00
40730;BME280;26418;50.070;8.436;2022-11-20T07:39:08;99509.97;;;2.98;100.00
40730;BME280;26418;50.070;8.436;2022-11-20T07:41:33;99496.22;;;2.79;100.00
40730;BME280;26418;50.070;8.436;2022-11-20T07:43:58;99510.41;;;2.85;100.00
40730;BME280;26418;50.070;8.436;2022-11-20T07:46:24;99504.75;;;2.76;100.00
40730;BME280;26418;50.070;8.436;2022-11-20T07:48:49;99501.81;;;2.72;100.00
40730;BME280;26418;50.070;8.436;2022-11-20T07:51:14;99518.91;;;2.76;100.00
40730;BME280;26418;50.070;8.436;2022-11-20T07:53:40;99516.22;;;2.71;100.00
40730;BME280;26418;50.070;8.436;2022-11-20T07:56:05;99486.22;;;2.59;100.00
40730;BME280;26418;50.070;8.436;2022-11-20T07:58:32;99515.94;;;2.67;100.00
40730;BME280;26418;50.070;8.436;2022-11-20T08:01:06;99510.06;;;2.71;100.00
40730;BME280;26418;50.070;8.436;2022-11-20T08:03:32;99525.84;;;2.72;100.00
40730;BME280;26418;50.070;8.436;2022-11-20T08:06:00;99513.50;;;2.66;100.00
40730;BME280;26418;50.070;8.436;2022-11-20T08:08:27;99529.03;;;2.74;100.00
40730;BME280;26418;50.070;8.436;2022-11-20T08:10:52;99536.31;;;2.84;100.00
40730;BME280;26418;50.070;8.436;2022-11-20T08:13:38;99541.41;;;2.86;100.00
40730;BME280;26418;50.070;8.436;2022-11-20T08:16:22;99550.75;;;2.88;100.00
40730;BME280;26418;50.070;8.436;2022-11-20T08:18:52;99523.78;;;2.90;100.00
40730;BME280;26418;50.070;8.436;2022-11-20T08:21:27;99519.53;;;2.94;100.00
40730;BME280;26418;50.070;8.436;2022-11-20T08:23:52;99529.00;;;3.17;100.00
40730;BME280;26418;50.070;8.436;2022-11-20T08:26:18;99537.88;;;3.33;100.00
40730;BME280;26418;50.070;8.436;2022-11-20T08:28:43;99536.03;;;3.34;100.00
40730;BME280;26418;50.070;8.436;2022-11-20T08:31:09;99533.06;;;3.30;100.00
40730;BME280;26418;50.070;8.436;2022-11-20T08:33:35;99523.38;;;3.19;99.51
40730;BME280;26418;50.070;8.436;2022-11-20T08:36:03;99479.47;;;2.89;99.04
40730;BME280;26418;50.070;8.436;2022-11-20T08:38:29;99556.88;;;3.37;99.06
40730;BME280;26418;50.070;8.436;2022-11-20T08:40:59;99553.13;;;3.38;99.19
40730;BME280;26418;50.070;8.436;2022-11-20T08:43:43;99557.97;;;3.46;99.11
40730;BME280;26418;50.070;8.436;2022-11-20T08:46:09;99515.38;;;3.19;98.75
40730;BME280;26418;50.070;8.436;2022-11-20T08:48:34;99539.53;;;3.44;98.61
40730;BME280;26418;50.070;8.436;2022-11-20T08:50:59;99547.84;;;3.53;98.43
40730;BME280;26418;50.070;8.436;2022-11-20T08:53:25;99536.91;;;3.55;98.54
40730;BME280;26418;50.070;8.436;2022-11-20T08:55:51;99491.41;;;3.39;98.04
40730;BME280;26418;50.070;8.436;2022-11-20T08:58:17;99553.00;;;3.81;97.33
40730;BME280;26418;50.070;8.436;2022-11-20T09:00:42;99531.06;;;3.73;97.32
40730;BME280;26418;50.070;8.436;2022-11-20T09:03:07;99531.31;;;3.72;96.96
40730;BME280;26418;50.070;8.436;2022-11-20T09:05:32;99531.06;;;3.73;96.16
40730;BME280;26418;50.070;8.436;2022-11-20T09:07:58;99536.13;;;3.70;93.70
40730;BME280;26418;50.070;8.436;2022-11-20T09:10:24;99560.50;;;3.78;91.46
40730;BME280;26418;50.070;8.436;2022-11-20T09:12:50;99561.56;;;3.72;91.81
40730;BME280;26418;50.070;8.436;2022-11-20T09:15:16;99561.47;;;3.57;92.21
40730;BME280;26418;50.070;8.436;2022-11-20T09:17:42;99556.13;;;3.57;93.14
40730;BME280;26418;50.070;8.436;2022-11-20T09:20:07;99531.78;;;3.43;93.02
40730;BME280;26418;50.070;8.436;2022-11-20T09:22:33;99566.06;;;3.67;92.85
40730;BME280;26418;50.070;8.436;2022-11-20T09:24:58;99526.72;;;3.57;93.24
40730;BME280;26418;50.070;8.436;2022-11-20T09:27:23;99549.75;;;3.68;93.78
40730;BME280;26418;50.070;8.436;2022-11-20T09:29:49;99523.03;;;3.78;96.04
40730;BME280;26418;50.070;8.436;2022-11-20T09:32:14;99522.78;;;3.96;97.13
40730;BME280;26418;50.070;8.436;2022-11-20T09:34:39;99557.88;;;4.51;94.13
40730;BME280;26418;50.070;8.436;2022-11-20T09:37:05;99521.75;;;4.43;91.47
40730;BME280;26418;50.070;8.436;2022-11-20T09:39:30;99532.69;;;4.67;90.39
40730;BME280;26418;50.070;8.436;2022-11-20T09:44:49;99556.16;;;5.12;89.57
40730;BME280;26418;50.070;8.436;2022-11-20T09:52:47;99556.44;;;5.05;85.44
40730;BME280;26418;50.070;8.436;2022-11-20T09:55:16;99542.81;;;4.86;86.74
40730;BME280;26418;50.070;8.436;2022-11-20T09:57:44;99553.00;;;4.84;87.49
40730;BME280;26418;50.070;8.436;2022-11-20T10:00:13;99533.47;;;4.63;88.31
40730;BME280;26418;50.070;8.436;2022-11-20T10:05:45;99556.78;;;4.67;89.87
40730;BME280;26418;50.070;8.436;2022-11-20T10:10:46;99535.66;;;4.50;90.00
40730;BME280;26418;50.070;8.436;2022-11-20T10:13:47;99546.09;;;4.47;90.30
40730;BME280;26418;50.070;8.436;2022-11-20T10:22:57;99551.47;;;4.36;92.22
40730;BME280;26418;50.070;8.436;2022-11-20T10:28:40;99539.41;;;4.34;91.99
40730;BME280;26418;50.070;8.436;2022-11-20T10:31:14;99535.91;;;4.33;92.13
40730;BME280;26418;50.070;8.436;2022-11-20T10:33:44;99507.28;;;4.18;92.41
40730;BME280;26418;50.070;8.436;2022-11-20T10:36:18;99500.06;;;4.19;92.41
40730;BME280;26418;50.070;8.436;2022-11-20T10:41:40;99498.72;;;4.27;92.70
40730;BME280;26418;50.070;8.436;2022-11-20T10:44:17;99479.97;;;4.21;92.01
40730;BME280;26418;50.070;8.436;2022-11-20T10:47:05;99482.66;;;4.21;92.58
40730;BME280;26418;50.070;8.436;2022-11-20T10:49:35;99506.19;;;4.40;93.14
40730;BME280;26418;50.070;8.436;2022-11-20T10:54:59;99505.38;;;4.50;93.26
40730;BME280;26418;50.070;8.436;2022-11-20T10:57:57;99507.53;;;4.53;93.22
40730;BME280;26418;50.070;8.436;2022-11-20T11:00:27;99488.28;;;4.35;92.72
40730;BME280;26418;50.070;8.436;2022-11-20T11:02:53;99504.31;;;4.46;91.74
40730;BME280;26418;50.070;8.436;2022-11-20T11:07:46;99485.88;;;4.44;91.24
40730;BME280;26418;50.070;8.436;2022-11-20T11:10:21;99505.94;;;4.57;91.56
40730;BME280;26418;50.070;8.436;2022-11-20T11:12:48;99468.47;;;4.36;91.66
40730;BME280;26418;50.070;8.436;2022-11-20T11:15:39;99499.47;;;4.63;92.43
40730;BME280;26418;50.070;8.436;2022-11-20T11:18:08;99496.00;;;4.68;92.24
40730;BME280;26418;50.070;8.436;2022-11-20T11:20:34;99484.75;;;4.66;92.37
40730;BME280;26418;50.070;8.436;2022-11-20T11:23:00;99487.66;;;4.75;92.52
40730;BME280;26418;50.070;8.436;2022-11-20T11:25:36;99487.38;;;4.81;91.93
40730;BME280;26418;50.070;8.436;2022-11-20T11:28:21;99473.69;;;4.83;91.41
40730;BME280;26418;50.070;8.436;2022-11-20T11:34:33;99436.00;;;4.69;90.88
40730;BME280;26418;50.070;8.436;2022-11-20T11:37:02;99406.84;;;4.52;90.95
40730;BME280;26418;50.070;8.436;2022-11-20T11:39:32;99468.56;;;5.02;91.41
40730;BME280;26418;50.070;8.436;2022-11-20T11:42:00;99443.41;;;4.93;91.33
40730;BME280;26418;50.070;8.436;2022-11-20T11:44:33;99419.59;;;4.81;91.10
40730;BME280;26418;50.070;8.436;2022-11-20T11:49:43;99470.91;;;5.14;91.22
40730;BME280;26418;50.070;8.436;2022-11-20T11:52:17;99455.63;;;5.14;91.22
40730;BME280;26418;50.070;8.436;2022-11-20T11:54:48;99449.94;;;5.26;90.58
40730;BME280;26418;50.070;8.436;2022-11-20T11:57:22;99461.72;;;5.30;90.74
40730;BME280;26418;50.070;8.436;2022-11-20T12:11:06;99435.41;;;5.77;89.62
40730;BME280;26418;50.070;8.436;2022-11-20T12:16:11;99383.97;;;5.70;87.75
40730;BME280;26418;50.070;8.436;2022-11-20T12:18:39;99354.00;;;5.58;87.48
40730;BME280;26418;50.070;8.436;2022-11-20T12:21:20;99427.56;;;6.21;86.63
40730;BME280;26418;50.070;8.436;2022-11-20T12:30:08;99422.91;;;6.26;85.01
40730;BME280;26418;50.070;8.436;2022-11-20T12:53:05;99409.53;;;5.57;88.02
40730;BME280;26418;50.070;8.436;2022-11-20T12:58:27;99385.94;;;5.54;90.15
40730;BME280;26418;50.070;8.436;2022-11-20T13:06:46;99405.28;;;5.86;89.21
40730;BME280;26418;50.070;8.436;2022-11-20T13:09:14;99405.38;;;5.75;88.93
40730;BME280;26418;50.070;8.436;2022-11-20T13:11:44;99390.47;;;5.59;89.30
40730;BME280;26418;50.070;8.436;2022-11-20T13:17:11;99397.63;;;5.69;90.27
40730;BME280;26418;50.070;8.436;2022-11-20T13:19:38;99395.00;;;5.63;90.17
40730;BME280;26418;50.070;8.436;2022-11-20T13:22:04;99369.91;;;5.49;90.58
40730;BME280;26418;50.070;8.436;2022-11-20T13:24:31;99389.66;;;5.58;90.57
40730;BME280;26418;50.070;8.436;2022-11-20T13:27:16;99385.91;;;5.59;90.82
40730;BME280;26418;50.070;8.436;2022-11-20T13:29:45;99369.66;;;5.45;90.54
40730;BME280;26418;50.070;8.436;2022-11-20T13:32:16;99375.81;;;5.46;91.07
40730;BME280;26418;50.070;8.436;2022-11-20T13:34:56;99387.31;;;5.51;91.34
40730;BME280;26418;50.070;8.436;2022-11-20T13:42:39;99392.84;;;5.26;91.21
40730;BME280;26418;50.070;8.436;2022-11-20T13:45:11;99390.25;;;5.10;91.57
40730;BME280;26418;50.070;8.436;2022-11-20T13:47:50;99393.47;;;5.07;92.30
40730;BME280;26418;50.070;8.436;2022-11-20T13:50:16;99386.28;;;5.02;92.61
40730;BME280;26418;50.070;8.436;2022-11-20T13:55:42;99366.16;;;5.05;93.91
40730;BME280;26418;50.070;8.436;2022-11-20T14:00:50;99356.44;;;5.19;94.16
40730;BME280;26418;50.070;8.436;2022-11-20T14:03:24;99357.69;;;5.27;94.28
40730;BME280;26418;50.070;8.436;2022-11-20T14:08:46;99351.25;;;5.28;93.71
40730;BME280;26418;50.070;8.436;2022-11-20T14:11:17;99326.72;;;5.11;93.92
40730;BME280;26418;50.070;8.436;2022-11-20T14:14:17;99347.50;;;5.29;93.96
40730;BME280;26418;50.070;8.436;2022-11-20T14:16:43;99332.53;;;5.23;93.44
40730;BME280;26418;50.070;8.436;2022-11-20T14:19:33;99305.03;;;5.07;93.63
40730;BME280;26418;50.070;8.436;2022-11-20T14:24:34;99306.44;;;4.99;93.22
40730;BME280;26418;50.070;8.436;2022-11-20T14:27:00;99315.72;;;5.12;93.51
40730;BME280;26418;50.070;8.436;2022-11-20T14:29:33;99295.44;;;5.01;93.54
40730;BME280;26418;50.070;8.436;2022-11-20T14:31:59;99282.38;;;4.89;93.88
40730;BME280;26418;50.070;8.436;2022-11-20T14:34:28;99287.75;;;4.89;93.74
40730;BME280;26418;50.070;8.436;2022-11-20T14:37:05;99303.44;;;5.06;93.63
40730;BME280;26418;50.070;8.436;2022-11-20T14:39:36;99286.13;;;4.88;93.70
40730;BME280;26418;50.070;8.436;2022-11-20T14:42:17;99322.72;;;5.08;94.06
40730;BME280;26418;50.070;8.436;2022-11-20T14:45:12;99323.25;;;5.05;94.69
40730;BME280;26418;50.070;8.436;2022-11-20T14:51:36;99309.38;;;5.03;95.13
40730;BME280;26418;50.070;8.436;2022-11-20T14:54:12;99272.81;;;4.78;95.25
40730;BME280;26418;50.070;8.436;2022-11-20T14:56:54;99294.19;;;4.83;95.29
40730;BME280;26418;50.070;8.436;2022-11-20T14:59:28;99312.88;;;4.98;95.81
40730;BME280;26418;50.070;8.436;2022-11-20T15:01:59;99311.28;;;4.97;95.82
40730;BME280;26418;50.070;8.436;2022-11-20T15:04:25;99308.59;;;4.97;95.93
40730;BME280;26418;50.070;8.436;2022-11-20T15:06:56;99294.13;;;4.98;95.95
40730;BME280;26418;50.070;8.436;2022-11-20T15:09:22;99299.75;;;4.97;95.98
40730;BME280;26418;50.070;8.436;2022-11-20T15:11:59;99298.94;;;4.96;96.04
40730;BME280;26418;50.070;8.436;2022-11-20T15:14:27;99299.25;;;4.95;96.20
40730;BME280;26418;50.070;8.436;2022-11-20T15:16:53;99294.41;;;4.92;96.07